Time;durP1;ratioP1;P1;durP2;ratioP2;P2;SDS_P1;SDS_P2;PMS_P1;PMS_P2;Temp;Humidity;BMP_temperature;BMP_pressure;BME280_temperature;BME280_humidity;BME280_pressure;Samples;Min_cycle;Max_cycle;Signal;HPM_P1;HPM_P2
2023/10/28 00:00:45;;;;;;;2.30;1.63;;;17.70;75.60;18.50;98781.00;;;;5068413;28;20263;-53
2023/10/28 00:03:11;;;;;;;1.50;1.40;;;17.70;75.60;18.50;98783.00;;;;5068113;28;20330;-53
2023/10/28 00:05:37;;;;;;;1.60;1.50;;;17.60;75.60;18.50;98779.00;;;;5067946;28;20253;-54
2023/10/28 00:08:03;;;;;;;1.70;1.60;;;17.70;75.60;18.50;98775.00;;;;5068421;28;20636;-53
2023/10/28 00:10:31;;;;;;;1.43;1.33;;;17.60;75.60;18.50;98781.00;;;;5067572;28;20185;-54
2023/10/28 00:12:57;;;;;;;1.80;1.70;;;17.60;75.60;18.50;98783.00;;;;5067175;28;20221;-54
2023/10/28 00:15:24;;;;;;;1.60;1.50;;;17.60;75.60;18.40;98779.00;;;;5067439;28;20197;-53
2023/10/28 00:17:50;;;;;;;1.50;1.40;;;17.60;75.60;18.40;98779.00;;;;5065812;28;20182;-53
2023/10/28 00:20:19;;;;;;;2.63;1.70;;;17.60;75.60;18.40;98796.00;;;;5065348;28;20223;-53
2023/10/28 00:22:54;;;;;;;1.80;1.70;;;17.60;75.60;18.40;98784.00;;;;5070346;28;20250;-55
2023/10/28 00:25:25;;;;;;;1.70;1.60;;;17.60;75.60;18.40;98767.00;;;;5070691;28;20261;-54
2023/10/28 00:27:54;;;;;;;1.87;1.77;;;17.60;75.70;18.40;98792.00;;;;5070572;28;20232;-54
2023/10/28 00:30:22;;;;;;;1.50;1.40;;;17.60;75.60;18.40;98795.00;;;;5068643;28;20648;-53
2023/10/28 00:32:49;;;;;;;1.40;1.30;;;17.60;75.60;18.40;98794.00;;;;5070810;28;20213;-53
2023/10/28 00:35:15;;;;;;;1.57;1.47;;;17.50;75.50;18.40;98796.00;;;;5070659;28;20648;-53
2023/10/28 00:37:41;;;;;;;1.53;1.43;;;17.60;75.60;18.40;98788.00;;;;5070571;28;20239;-53
2023/10/28 00:40:07;;;;;;;1.60;1.50;;;17.50;75.50;18.40;98794.00;;;;5070178;28;20240;-53
2023/10/28 00:42:35;;;;;;;1.83;1.57;;;17.50;75.50;18.30;98799.00;;;;5071497;28;20201;-53
2023/10/28 00:45:03;;;;;;;1.83;1.63;;;17.50;75.50;18.30;98800.00;;;;5071353;28;20622;-55
2023/10/28 00:47:29;;;;;;;1.70;1.60;;;17.50;75.50;18.30;98801.00;;;;5071065;28;20574;-54
2023/10/28 00:49:55;;;;;;;1.50;1.40;;;17.50;75.50;18.30;98803.00;;;;5070251;28;20174;-54
2023/10/28 00:52:21;;;;;;;1.60;1.50;;;17.50;75.50;18.30;98809.00;;;;5068968;28;20506;-53
2023/10/28 00:54:52;;;;;;;1.70;1.60;;;17.50;75.50;18.30;98798.00;;;;5068958;28;20181;-53
2023/10/28 00:57:17;;;;;;;1.63;1.50;;;17.50;75.70;18.30;98806.00;;;;5068878;28;20264;-52
2023/10/28 00:59:43;;;;;;;1.70;1.50;;;17.50;75.80;18.30;98799.00;;;;5068569;28;20687;-53
2023/10/28 01:02:13;;;;;;;1.60;1.50;;;17.40;75.70;18.30;98796.00;;;;5068735;28;20629;-52
2023/10/28 01:04:39;;;;;;;1.60;1.50;;;17.40;75.60;18.30;98795.00;;;;5070199;28;20208;-52
2023/10/28 01:07:05;;;;;;;1.57;1.30;;;17.40;75.70;18.30;98788.00;;;;5070207;28;20667;-53
2023/10/28 01:09:30;;;;;;;1.50;1.40;;;17.40;75.60;18.30;98805.00;;;;5068803;28;20291;-52
2023/10/28 01:11:56;;;;;;;1.60;1.50;;;17.50;75.80;18.20;98797.00;;;;5069902;28;20173;-53
2023/10/28 01:14:22;;;;;;;1.60;1.50;;;17.40;75.60;18.20;98788.00;;;;5069961;28;20198;-52
2023/10/28 01:16:49;;;;;;;1.40;1.30;;;17.40;75.60;18.20;98794.00;;;;5069865;28;20235;-52
2023/10/28 01:19:15;;;;;;;1.50;1.40;;;17.40;75.60;18.20;98787.00;;;;5069879;28;20651;-53
2023/10/28 01:21:42;;;;;;;1.60;1.50;;;17.40;75.60;18.20;98787.00;;;;5068347;28;20217;-53
2023/10/28 01:24:08;;;;;;;1.73;1.63;;;17.40;75.50;18.20;98799.00;;;;5069625;28;20217;-53
2023/10/28 01:26:35;;;;;;;1.60;1.50;;;17.40;75.60;18.20;98787.00;;;;5069540;28;20193;-54
2023/10/28 01:29:02;;;;;;;1.60;1.50;;;17.40;75.60;18.20;98784.00;;;;5068318;28;20177;-53
2023/10/28 01:31:28;;;;;;;1.70;1.60;;;17.40;75.60;18.20;98792.00;;;;5069209;28;20181;-53
2023/10/28 01:33:54;;;;;;;1.70;1.60;;;17.30;75.60;18.20;98797.00;;;;5068690;28;20314;-54
2023/10/28 01:36:20;;;;;;;1.40;1.30;;;17.40;75.60;18.20;98793.00;;;;5069398;28;20178;-54
2023/10/28 01:38:45;;;;;;;1.60;1.50;;;17.40;75.60;18.20;98794.00;;;;5069360;28;20205;-54
2023/10/28 01:41:13;;;;;;;1.40;1.30;;;17.30;75.60;18.20;98801.00;;;;5069246;28;20201;-54
2023/10/28 01:43:46;;;;;;;1.50;1.40;;;17.30;75.60;18.20;98791.00;;;;5070129;28;20284;-55
2023/10/28 01:46:12;;;;;;;1.50;1.40;;;17.30;75.60;18.20;98798.00;;;;5069598;28;20201;-53
2023/10/28 01:48:37;;;;;;;1.23;1.23;;;17.30;75.60;18.20;98796.00;;;;5071284;28;20773;-53
2023/10/28 01:51:03;;;;;;;1.47;1.37;;;17.30;75.60;18.20;98811.00;;;;5070625;28;20182;-53
2023/10/28 01:53:30;;;;;;;1.50;1.40;;;17.30;75.70;18.10;98812.00;;;;5068194;28;20587;-53
2023/10/28 01:55:57;;;;;;;1.47;1.37;;;17.30;75.70;18.10;98810.00;;;;5067806;28;20556;-52
2023/10/28 01:58:24;;;;;;;1.53;1.43;;;17.30;75.60;18.10;98810.00;;;;5069073;28;20204;-53
2023/10/28 02:00:49;;;;;;;1.47;1.37;;;17.30;75.60;18.10;98814.00;;;;5053746;28;20358;-54
2023/10/28 02:03:15;;;;;;;2.07;1.60;;;17.20;75.40;18.10;98821.00;;;;5050722;28;20218;-52
2023/10/28 02:05:41;;;;;;;1.40;1.30;;;17.30;75.50;18.10;98817.00;;;;5048968;28;20182;-52
2023/10/28 02:08:07;;;;;;;1.60;1.50;;;17.30;75.40;18.10;98812.00;;;;5050572;28;20189;-53
2023/10/28 02:10:34;;;;;;;1.40;1.30;;;17.20;75.40;18.10;98821.00;;;;5056150;28;20200;-53
2023/10/28 02:12:59;;;;;;;1.13;1.13;;;17.30;75.60;18.10;98822.00;;;;5053425;28;20672;-52
2023/10/28 02:15:25;;;;;;;1.50;1.40;;;17.20;75.40;18.10;98826.00;;;;5051183;28;20185;-53
2023/10/28 02:17:52;;;;;;;1.60;1.50;;;17.30;75.50;18.10;98828.00;;;;5066014;28;20209;-56
2023/10/28 02:20:18;;;;;;;1.43;1.33;;;17.20;75.50;18.10;98816.00;;;;5061558;28;20190;-53
2023/10/28 02:22:44;;;;;;;1.40;1.30;;;17.20;75.50;18.10;98821.00;;;;5050843;28;20198;-54
2023/10/28 02:25:10;;;;;;;1.50;1.40;;;17.20;75.50;18.00;98823.00;;;;5066802;28;20185;-53
2023/10/28 02:27:37;;;;;;;1.50;1.40;;;17.20;75.40;18.00;98830.00;;;;5068579;28;20239;-52
2023/10/28 02:30:09;;;;;;;1.50;1.40;;;17.20;75.50;18.00;98829.00;;;;5065970;28;20181;-52
2023/10/28 02:32:36;;;;;;;1.40;1.30;;;17.20;75.40;18.00;98811.00;;;;5047156;28;20606;-54
2023/10/28 02:35:02;;;;;;;1.60;1.50;;;17.20;75.50;18.00;98813.00;;;;5051669;28;20264;-54
2023/10/28 02:37:29;;;;;;;1.70;1.60;;;17.20;75.40;18.00;98820.00;;;;5062059;28;20678;-53
2023/10/28 02:39:55;;;;;;;1.60;1.50;;;17.20;75.40;18.00;98811.00;;;;5067823;28;20732;-54
2023/10/28 02:42:24;;;;;;;1.50;1.40;;;17.20;75.40;18.00;98815.00;;;;5066936;28;20183;-55
2023/10/28 02:44:50;;;;;;;1.50;1.40;;;17.20;75.40;18.00;98821.00;;;;5067057;28;20196;-53
2023/10/28 02:47:16;;;;;;;1.60;1.50;;;17.20;75.40;18.00;98820.00;;;;5068233;28;20268;-53
2023/10/28 02:49:42;;;;;;;1.70;1.50;;;17.20;75.40;18.00;98816.00;;;;5068014;28;20181;-54
2023/10/28 02:52:08;;;;;;;1.50;1.40;;;17.20;75.40;18.00;98808.00;;;;5065482;28;20236;-53
2023/10/28 02:54:35;;;;;;;1.57;1.47;;;17.20;75.30;18.00;98809.00;;;;5062821;28;20270;-53
2023/10/28 02:57:00;;;;;;;1.43;1.33;;;17.20;75.30;18.00;98813.00;;;;5066883;28;20563;-53
2023/10/28 02:59:27;;;;;;;1.30;1.20;;;17.20;75.30;18.00;98814.00;;;;5062852;28;20169;-53
2023/10/28 03:01:53;;;;;;;1.60;1.50;;;17.20;75.30;18.00;98819.00;;;;5051707;28;20197;-53
2023/10/28 03:04:19;;;;;;;1.40;1.30;;;17.10;75.20;18.00;98818.00;;;;5068789;28;20197;-53
2023/10/28 03:06:45;;;;;;;1.17;1.17;;;17.10;75.20;18.00;98818.00;;;;5068948;28;20175;-53
2023/10/28 03:09:11;;;;;;;1.60;1.50;;;17.10;75.20;18.00;98830.00;;;;5068724;28;20219;-54
2023/10/28 03:11:37;;;;;;;1.13;1.10;;;17.10;75.20;18.00;98823.00;;;;5068664;28;20601;-54
2023/10/28 03:14:04;;;;;;;1.60;1.50;;;17.10;75.20;17.90;98824.00;;;;5066861;28;20936;-53
2023/10/28 03:16:30;;;;;;;1.30;1.20;;;17.10;75.20;17.90;98819.00;;;;5051399;28;20204;-53
2023/10/28 03:18:56;;;;;;;1.50;1.40;;;17.10;75.30;17.90;98815.00;;;;5058264;28;20181;-54
2023/10/28 03:21:22;;;;;;;1.50;1.40;;;17.10;75.30;17.90;98831.00;;;;5068644;28;20210;-53
2023/10/28 03:23:48;;;;;;;2.23;1.40;;;17.10;75.20;17.90;98826.00;;;;5068769;28;20199;-53
2023/10/28 03:26:14;;;;;;;1.37;1.27;;;17.10;75.20;17.90;98826.00;;;;5068923;28;20193;-53
2023/10/28 03:28:39;;;;;;;1.30;1.20;;;17.10;75.30;18.00;98826.00;;;;5068596;28;20248;-53
2023/10/28 03:31:12;;;;;;;1.87;1.30;;;17.10;75.30;18.00;98824.00;;;;5068109;28;20200;-54
2023/10/28 03:33:40;;;;;;;1.90;1.53;;;17.10;75.30;17.90;98824.00;;;;5046873;28;20276;-54
2023/10/28 03:36:09;;;;;;;1.53;1.40;;;17.00;75.20;17.90;98820.00;;;;5064343;28;20185;-54
2023/10/28 03:38:35;;;;;;;1.63;1.40;;;17.10;75.10;17.90;98821.00;;;;5065471;28;20751;-54
2023/10/28 03:41:11;;;;;;;2.50;1.17;;;17.00;75.20;17.90;98826.00;;;;5068956;28;20292;-54
2023/10/28 03:43:43;;;;;;;2.60;1.67;;;17.10;75.20;17.90;98832.00;;;;5069164;28;20251;-54
2023/10/28 03:46:15;;;;;;;2.07;1.60;;;17.10;75.10;17.90;98832.00;;;;5068626;28;20671;-55
2023/10/28 03:48:41;;;;;;;1.43;1.40;;;17.00;75.00;17.70;98828.00;;;;5067629;28;20169;-55
2023/10/28 03:51:07;;;;;;;3.43;1.57;;;17.10;75.10;17.90;98839.00;;;;5068515;28;20173;-53
2023/10/28 03:53:32;;;;;;;1.60;1.50;;;17.10;75.10;17.90;98825.00;;;;5068443;28;20209;-54
2023/10/28 03:55:58;;;;;;;2.80;1.30;;;17.00;75.00;17.90;98825.00;;;;5069431;28;20299;-54
2023/10/28 03:58:24;;;;;;;1.57;1.40;;;17.10;75.00;17.90;98824.00;;;;5072208;28;20185;-54
2023/10/28 04:00:53;;;;;;;3.40;1.70;;;17.10;75.00;17.90;98829.00;;;;5065140;28;20273;-54
2023/10/28 04:03:22;;;;;;;2.10;1.40;;;17.00;74.90;17.90;98835.00;;;;5067315;28;20671;-53
2023/10/28 04:05:49;;;;;;;1.60;1.50;;;17.00;74.90;17.90;98839.00;;;;5069662;28;20215;-54
2023/10/28 04:08:15;;;;;;;1.97;1.60;;;17.00;75.00;17.90;98839.00;;;;5070445;28;20231;-53
2023/10/28 04:10:41;;;;;;;1.70;1.60;;;17.00;75.00;17.90;98840.00;;;;5071565;28;20232;-54
2023/10/28 04:13:07;;;;;;;1.47;1.37;;;17.00;75.00;17.90;98836.00;;;;5070921;28;20206;-53
2023/10/28 04:15:32;;;;;;;1.50;1.40;;;17.00;74.90;17.90;98833.00;;;;5069100;28;20180;-53
2023/10/28 04:17:58;;;;;;;2.37;1.43;;;17.00;74.90;17.90;98835.00;;;;5071128;28;20199;-55
2023/10/28 04:20:24;;;;;;;1.50;1.40;;;17.00;74.80;17.90;98833.00;;;;5071127;28;20201;-54
2023/10/28 04:22:50;;;;;;;1.73;1.40;;;17.00;74.90;17.90;98830.00;;;;5071013;28;20609;-54
2023/10/28 04:25:15;;;;;;;1.63;1.53;;;17.00;74.90;17.90;98840.00;;;;5069187;28;20326;-54
2023/10/28 04:27:41;;;;;;;4.97;1.50;;;17.00;74.90;17.90;98836.00;;;;5069185;28;20235;-54
2023/10/28 04:30:10;;;;;;;3.33;1.63;;;17.00;74.90;17.90;98849.00;;;;5060700;28;20267;-53
2023/10/28 04:32:39;;;;;;;3.50;1.70;;;16.90;75.00;17.80;98844.00;;;;5066111;28;20255;-53
2023/10/28 04:35:10;;;;;;;5.63;1.87;;;16.90;75.00;17.80;98838.00;;;;5068906;28;20207;-53
2023/10/28 04:37:36;;;;;;;2.53;1.70;;;17.00;75.00;17.80;98833.00;;;;5071295;28;20692;-53
2023/10/28 04:40:05;;;;;;;7.10;1.87;;;17.00;75.00;17.80;98853.00;;;;5070565;28;20221;-54
2023/10/28 04:42:31;;;;;;;4.30;1.70;;;17.00;75.00;17.80;98828.00;;;;5070706;28;20181;-53
2023/10/28 04:44:57;;;;;;;5.13;1.87;;;16.90;75.00;17.80;98828.00;;;;5068281;28;20169;-53
2023/10/28 04:47:24;;;;;;;4.43;1.80;;;16.90;75.00;17.80;98829.00;;;;5069836;28;20184;-52
2023/10/28 04:49:50;;;;;;;2.43;1.67;;;16.90;75.10;17.80;98828.00;;;;5070709;28;20200;-54
2023/10/28 04:52:17;;;;;;;2.83;1.70;;;16.90;75.00;17.80;98822.00;;;;5066569;28;20169;-54
2023/10/28 04:54:42;;;;;;;1.80;1.60;;;16.90;75.00;17.80;98824.00;;;;5063754;28;20181;-53
2023/10/28 04:57:09;;;;;;;1.87;1.63;;;16.90;75.00;17.80;98826.00;;;;5070713;28;20176;-54
2023/10/28 04:59:35;;;;;;;2.97;1.60;;;16.90;75.20;17.80;98829.00;;;;5070625;28;20546;-53
2023/10/28 05:02:01;;;;;;;2.47;1.50;;;16.90;75.00;17.80;98820.00;;;;5062797;28;20254;-53
2023/10/28 05:04:27;;;;;;;2.30;1.50;;;16.90;75.00;17.80;98815.00;;;;5066716;28;20208;-53
2023/10/28 05:06:53;;;;;;;2.43;1.40;;;16.90;75.00;17.80;98817.00;;;;5066851;28;20177;-53
2023/10/28 05:09:22;;;;;;;2.43;1.43;;;16.90;75.00;17.80;98820.00;;;;5068405;28;20647;-53
2023/10/28 05:11:55;;;;;;;2.43;1.50;;;16.80;74.90;17.80;98820.00;;;;5070356;28;20170;-53
2023/10/28 05:14:24;;;;;;;1.63;1.40;;;16.80;75.00;17.80;98817.00;;;;5067839;28;20259;-53
2023/10/28 05:16:54;;;;;;;1.90;1.60;;;16.80;74.90;17.70;98808.00;;;;5068893;28;20177;-53
2023/10/28 05:19:23;;;;;;;2.33;1.47;;;16.80;74.90;17.70;98817.00;;;;5069126;28;20227;-53
2023/10/28 05:21:49;;;;;;;3.87;1.60;;;16.90;75.00;17.70;98818.00;;;;5069160;28;20204;-53
2023/10/28 05:24:15;;;;;;;1.37;1.27;;;16.80;74.90;17.70;98816.00;;;;5067396;28;20194;-53
2023/10/28 05:26:42;;;;;;;2.30;1.43;;;16.80;75.00;17.70;98744.00;;;;5070573;28;20705;-53
2023/10/28 05:29:08;;;;;;;3.33;1.50;;;16.80;75.00;17.70;98823.00;;;;5073971;28;20250;-53
2023/10/28 05:31:35;;;;;;;3.17;1.63;;;16.80;75.50;17.70;98822.00;;;;5066866;28;20177;-54
2023/10/28 05:34:02;;;;;;;3.40;1.67;;;16.80;75.00;17.70;98829.00;;;;5070518;28;20210;-55
2023/10/28 05:36:28;;;;;;;3.60;1.70;;;16.80;74.90;17.70;98825.00;;;;5071859;28;20227;-53
2023/10/28 05:38:54;;;;;;;3.00;1.40;;;16.80;74.90;17.70;98820.00;;;;5071056;28;20539;-53
2023/10/28 05:41:20;;;;;;;2.93;1.73;;;16.90;75.00;17.70;98811.00;;;;5070848;28;20206;-53
2023/10/28 05:43:48;;;;;;;2.03;1.27;;;16.80;74.90;17.70;98823.00;;;;5067540;28;20201;-53
2023/10/28 05:46:14;;;;;;;2.07;1.60;;;16.80;74.90;17.70;98825.00;;;;5054075;28;20685;-53
2023/10/28 05:48:40;;;;;;;4.33;1.30;;;16.80;74.90;17.70;98812.00;;;;5072379;28;20177;-53
2023/10/28 05:51:06;;;;;;;3.80;1.70;;;16.80;74.90;17.70;98823.00;;;;5070948;28;20265;-53
2023/10/28 05:53:31;;;;;;;3.70;1.40;;;16.80;74.90;17.70;98826.00;;;;5069500;28;20284;-53
2023/10/28 05:55:57;;;;;;;2.27;1.40;;;16.80;74.90;17.70;98830.00;;;;5067569;28;20178;-53
2023/10/28 05:58:24;;;;;;;5.17;1.90;;;16.80;74.90;17.70;98828.00;;;;5069836;28;20212;-53
2023/10/28 06:00:49;;;;;;;4.53;1.50;;;16.80;74.90;17.70;98827.00;;;;5062708;28;20209;-53
2023/10/28 06:03:15;;;;;;;2.13;1.47;;;16.80;74.90;17.70;98829.00;;;;5069144;28;20213;-53
2023/10/28 06:05:41;;;;;;;3.77;1.67;;;16.80;74.90;17.70;98829.00;;;;5067064;28;20197;-55
2023/10/28 06:08:11;;;;;;;1.33;1.23;;;16.80;74.90;17.70;98840.00;;;;5057749;28;20188;-53
2023/10/28 06:10:37;;;;;;;2.60;1.47;;;16.80;75.00;17.70;98842.00;;;;5052238;28;20209;-53
2023/10/28 06:13:02;;;;;;;2.50;1.37;;;16.80;74.90;17.70;98837.00;;;;5052870;28;20241;-54
2023/10/28 06:15:28;;;;;;;1.90;1.40;;;16.80;74.90;17.70;98845.00;;;;5051870;28;20216;-55
2023/10/28 06:17:54;;;;;;;2.00;1.13;;;16.80;74.90;17.70;98850.00;;;;5066451;28;20674;-53
2023/10/28 06:20:20;;;;;;;2.17;1.50;;;16.80;74.90;17.70;98844.00;;;;5068595;28;20201;-53
2023/10/28 06:22:46;;;;;;;1.73;1.60;;;16.80;74.90;17.70;98839.00;;;;5068730;28;20201;-53
2023/10/28 06:25:14;;;;;;;1.97;1.37;;;16.80;74.90;17.70;98848.00;;;;5066797;28;20552;-54
2023/10/28 06:27:40;;;;;;;2.47;1.50;;;16.80;74.90;17.60;98849.00;;;;5069407;28;20217;-53
2023/10/28 06:30:07;;;;;;;1.67;1.57;;;16.80;74.90;17.60;98851.00;;;;5067902;28;20808;-53
2023/10/28 06:32:33;;;;;;;2.40;1.50;;;16.80;74.90;17.60;98854.00;;;;5012167;28;20201;-53
2023/10/28 06:34:59;;;;;;;2.17;1.53;;;16.80;75.00;17.60;98845.00;;;;5059975;28;20212;-53
2023/10/28 06:37:24;;;;;;;1.57;1.20;;;16.80;75.00;17.60;98851.00;;;;5069057;28;20192;-54
2023/10/28 06:39:51;;;;;;;1.43;1.33;;;16.80;75.00;17.60;98857.00;;;;5068726;28;20195;-54
2023/10/28 06:42:16;;;;;;;1.77;1.20;;;16.70;74.90;17.60;98844.00;;;;5066047;28;20696;-54
2023/10/28 06:44:43;;;;;;;1.80;1.30;;;16.80;75.00;17.60;98856.00;;;;5050134;28;20166;-53
2023/10/28 06:47:10;;;;;;;1.43;1.33;;;16.80;74.90;17.60;98864.00;;;;5052963;28;20177;-53
2023/10/28 06:49:36;;;;;;;2.33;1.40;;;16.80;75.00;17.60;98856.00;;;;5050123;28;20263;-53
2023/10/28 06:52:02;;;;;;;1.50;1.40;;;16.70;74.90;17.60;98862.00;;;;5067112;28;20678;-53
2023/10/28 06:54:28;;;;;;;1.43;1.33;;;16.70;74.90;17.60;98860.00;;;;5065953;28;20200;-54
2023/10/28 06:56:53;;;;;;;1.63;1.30;;;16.70;74.90;17.60;98857.00;;;;5068482;28;20235;-54
2023/10/28 06:59:19;;;;;;;1.33;1.30;;;16.70;74.90;17.60;98868.00;;;;5068392;28;20205;-53
2023/10/28 07:01:45;;;;;;;2.93;1.60;;;16.70;74.90;17.60;98863.00;;;;5062121;28;20296;-54
2023/10/28 07:04:11;;;;;;;1.43;1.33;;;16.70;74.90;17.60;98861.00;;;;5067892;28;20580;-53
2023/10/28 07:06:37;;;;;;;1.77;1.40;;;16.70;74.90;17.60;98865.00;;;;5065021;28;20181;-53
2023/10/28 07:09:03;;;;;;;1.40;1.30;;;16.70;74.90;17.60;98871.00;;;;5068214;28;20182;-53
2023/10/28 07:11:29;;;;;;;1.43;1.33;;;16.70;74.90;17.60;98870.00;;;;5068378;28;20260;-53
2023/10/28 07:13:55;;;;;;;1.27;1.20;;;16.70;74.90;17.60;98866.00;;;;5065130;28;20887;-53
2023/10/28 07:16:20;;;;;;;1.37;1.27;;;16.70;75.00;17.60;98867.00;;;;5068434;28;20184;-54
2023/10/28 07:18:46;;;;;;;1.17;1.07;;;16.70;74.90;17.60;98866.00;;;;5069094;28;20768;-53
2023/10/28 07:21:13;;;;;;;1.20;1.10;;;16.70;74.90;17.60;98863.00;;;;5068613;28;20644;-54
2023/10/28 07:23:39;;;;;;;1.47;1.37;;;16.70;75.70;17.50;98870.00;;;;5067921;28;20199;-55
2023/10/28 07:26:05;;;;;;;1.43;1.30;;;16.60;74.90;17.60;98870.00;;;;5068264;28;20189;-53
2023/10/28 07:28:34;;;;;;;1.17;1.10;;;16.70;75.00;17.50;98873.00;;;;5069935;28;20173;-53
2023/10/28 07:31:00;;;;;;;1.37;1.27;;;16.70;75.00;17.50;98872.00;;;;5062220;28;20217;-53
2023/10/28 07:33:26;;;;;;;1.77;1.50;;;16.70;75.00;17.50;98860.00;;;;5072246;28;20755;-54
2023/10/28 07:35:52;;;;;;;1.70;1.30;;;16.70;75.00;17.50;98871.00;;;;5072341;28;20218;-53
2023/10/28 07:38:18;;;;;;;1.40;1.30;;;16.70;75.00;17.50;98874.00;;;;5071475;28;20188;-53
2023/10/28 07:40:44;;;;;;;2.40;1.30;;;16.70;75.00;17.50;98865.00;;;;5071339;28;20225;-54
2023/10/28 07:43:11;;;;;;;1.27;1.27;;;16.70;75.00;17.50;98867.00;;;;5073805;28;20208;-54
2023/10/28 07:45:38;;;;;;;1.07;1.07;;;16.70;75.00;17.50;98881.00;;;;5072009;28;20325;-54
2023/10/28 07:48:06;;;;;;;1.30;1.20;;;16.70;75.00;17.50;98889.00;;;;5072071;28;20176;-54
2023/10/28 07:50:38;;;;;;;1.37;1.27;;;16.70;75.00;17.50;98880.00;;;;5055231;28;20774;-54
2023/10/28 07:53:04;;;;;;;1.30;1.20;;;16.70;75.00;17.50;98872.00;;;;5068900;28;20197;-54
2023/10/28 07:55:31;;;;;;;0.90;0.90;;;16.60;75.00;17.50;98882.00;;;;5069167;28;20207;-54
2023/10/28 07:57:56;;;;;;;1.43;1.23;;;16.60;75.00;17.50;98877.00;;;;5071749;28;20603;-54
2023/10/28 08:00:23;;;;;;;1.77;1.20;;;16.60;74.90;17.50;98894.00;;;;5067990;28;20256;-54
2023/10/28 08:02:50;;;;;;;1.17;1.07;;;16.60;75.00;17.50;98902.00;;;;5067637;28;20278;-54
2023/10/28 08:05:16;;;;;;;1.07;1.07;;;16.60;75.00;17.50;98908.00;;;;5069993;28;20181;-54
2023/10/28 08:07:42;;;;;;;1.27;1.17;;;16.60;74.90;17.50;98895.00;;;;5054005;28;20180;-54
2023/10/28 08:10:08;;;;;;;1.30;1.20;;;16.60;75.00;17.50;98898.00;;;;5070537;28;20358;-53
2023/10/28 08:12:34;;;;;;;1.30;1.20;;;16.60;75.00;17.50;98907.00;;;;5071173;28;20677;-54
2023/10/28 08:15:01;;;;;;;1.33;1.23;;;16.60;75.00;17.50;98908.00;;;;5070766;28;20177;-53
2023/10/28 08:17:27;;;;;;;2.10;1.30;;;16.60;75.40;17.40;98913.00;;;;5071174;28;20248;-53
2023/10/28 08:19:53;;;;;;;1.33;1.27;;;16.60;75.40;17.50;98914.00;;;;5070119;28;20242;-54
2023/10/28 08:22:19;;;;;;;1.33;1.23;;;16.60;75.30;17.40;98914.00;;;;5070727;28;20265;-53
2023/10/28 08:24:45;;;;;;;1.47;1.23;;;16.60;75.30;17.40;98926.00;;;;5062768;28;20213;-53
2023/10/28 08:27:11;;;;;;;1.20;1.10;;;16.60;75.60;17.40;98917.00;;;;5071048;28;20216;-53
2023/10/28 08:29:37;;;;;;;1.70;1.47;;;16.60;75.40;17.50;98908.00;;;;5068616;28;20205;-53
2023/10/28 08:32:03;;;;;;;1.40;1.30;;;16.60;75.40;17.50;98918.00;;;;5069371;28;20203;-53
2023/10/28 08:34:29;;;;;;;2.40;1.20;;;16.60;75.70;17.40;98923.00;;;;5060453;28;20756;-53
2023/10/28 08:36:55;;;;;;;2.57;1.60;;;16.60;76.00;17.50;98926.00;;;;5070612;28;20224;-54
2023/10/28 08:39:21;;;;;;;1.50;1.40;;;16.60;76.20;17.50;98935.00;;;;5063507;28;20228;-54
2023/10/28 08:41:47;;;;;;;1.53;1.40;;;16.70;76.30;17.50;98941.00;;;;5069372;28;20350;-54
2023/10/28 08:44:27;;;;;;;2.00;1.60;;;16.70;76.20;17.50;98932.00;;;;5060419;28;20212;-54
2023/10/28 08:46:53;;;;;;;1.43;1.30;;;16.80;76.10;17.50;98943.00;;;;5069221;28;20705;-53
2023/10/28 08:49:18;;;;;;;2.43;1.33;;;16.90;76.00;17.60;98942.00;;;;5069106;28;20267;-53
2023/10/28 08:51:47;;;;;;;2.33;1.20;;;17.00;75.90;17.60;98947.00;;;;5069610;28;20231;-52
2023/10/28 08:54:13;;;;;;;1.60;1.40;;;17.10;75.80;17.70;98949.00;;;;5069016;28;20216;-53
2023/10/28 08:56:40;;;;;;;2.93;1.30;;;17.30;75.80;17.80;98954.00;;;;5068935;28;20192;-54
2023/10/28 08:59:07;;;;;;;2.47;1.60;;;17.40;75.50;17.90;98956.00;;;;5069038;28;20192;-54
2023/10/28 09:01:33;;;;;;;2.57;1.40;;;17.50;75.30;18.00;98962.00;;;;5061920;28;20240;-54
2023/10/28 09:04:01;;;;;;;1.93;1.27;;;17.70;75.30;18.10;98953.00;;;;5068477;28;20672;-53
2023/10/28 09:06:28;;;;;;;1.37;1.30;;;17.80;75.00;18.20;98957.00;;;;5069148;28;20680;-54
2023/10/28 09:08:55;;;;;;;1.70;1.60;;;17.90;75.00;18.30;98958.00;;;;5069734;28;20235;-53
2023/10/28 09:11:21;;;;;;;1.30;1.20;;;18.00;74.70;18.40;98956.00;;;;5072083;28;20766;-54
2023/10/28 09:13:47;;;;;;;2.50;1.33;;;18.20;74.60;18.40;98956.00;;;;5071083;28;20235;-51
2023/10/28 09:16:16;;;;;;;2.77;1.50;;;18.30;74.70;18.50;98962.00;;;;5055959;28;20225;-52
2023/10/28 09:18:42;;;;;;;3.50;1.30;;;18.40;74.70;18.60;98957.00;;;;5072503;28;20196;-52
2023/10/28 09:21:09;;;;;;;3.27;1.40;;;18.50;74.70;18.70;98963.00;;;;5070898;28;20303;-52
2023/10/28 09:23:38;;;;;;;3.57;1.63;;;18.60;74.50;18.80;98951.00;;;;5072755;28;20232;-52
2023/10/28 09:26:05;;;;;;;2.33;1.40;;;18.60;75.00;18.90;98956.00;;;;5070287;28;20177;-51
2023/10/28 09:28:31;;;;;;;5.77;1.50;;;18.60;75.10;18.90;98954.00;;;;5056847;28;20187;-48
2023/10/28 09:30:59;;;;;;;1.97;1.17;;;18.70;75.40;19.00;98964.00;;;;5060486;28;20316;-50
2023/10/28 09:33:25;;;;;;;2.93;1.40;;;18.70;75.60;19.00;98962.00;;;;5049737;28;20209;-50
2023/10/28 09:35:53;;;;;;;2.83;1.30;;;18.70;75.60;19.00;98961.00;;;;5056236;28;20171;-50
2023/10/28 09:38:19;;;;;;;1.97;1.23;;;18.70;75.90;19.10;98968.00;;;;5065664;28;20193;-49
2023/10/28 09:40:46;;;;;;;4.63;1.50;;;18.70;76.00;19.10;98966.00;;;;5070558;28;20678;-51
2023/10/28 09:43:14;;;;;;;5.43;1.67;;;18.70;76.00;19.10;98968.00;;;;5069306;28;20284;-51
2023/10/28 09:45:40;;;;;;;3.50;1.40;;;18.70;76.10;19.10;98978.00;;;;5046738;28;20193;-49
2023/10/28 09:48:13;;;;;;;5.63;1.60;;;18.70;76.30;19.10;98975.00;;;;5068442;28;20192;-49
2023/10/28 09:50:53;;;;;;;2.03;1.23;;;18.60;76.40;19.20;98982.00;;;;5068054;28;20181;-49
2023/10/28 09:53:27;;;;;;;2.70;1.30;;;18.60;76.80;19.10;98974.00;;;;5068658;28;20205;-50
2023/10/28 09:55:55;;;;;;;1.43;1.30;;;18.60;76.70;19.10;98981.00;;;;5069241;28;20181;-50
2023/10/28 09:58:51;;;;;;;1.60;1.33;;;18.60;76.90;19.20;98987.00;;;;5069046;28;20185;-50
2023/10/28 10:01:48;;;;;;;4.47;1.13;;;18.50;77.00;19.20;98988.00;;;;5076029;28;20221;-50
2023/10/28 10:04:33;;;;;;;4.83;1.37;;;18.50;77.20;19.20;98979.00;;;;5068638;28;20215;-49
2023/10/28 10:06:58;;;;;;;2.10;1.37;;;18.50;77.30;19.10;98974.00;;;;5062197;28;20174;-50
2023/10/28 10:09:24;;;;;;;3.83;1.50;;;18.50;77.60;19.20;98981.00;;;;5049580;28;20182;-49
2023/10/28 10:11:50;;;;;;;2.77;1.30;;;18.50;77.70;19.10;98981.00;;;;5051914;28;20178;-49
2023/10/28 10:14:18;;;;;;;2.33;1.40;;;18.50;77.70;19.20;98977.00;;;;5052935;28;20201;-48
2023/10/28 10:17:02;;;;;;;3.37;1.40;;;18.50;77.60;19.20;98982.00;;;;5052826;28;20171;-49
2023/10/28 10:19:37;;;;;;;1.97;1.27;;;18.50;77.60;19.20;98976.00;;;;5071354;28;20850;-48
2023/10/28 10:22:03;;;;;;;2.13;1.10;;;18.50;77.70;19.20;98980.00;;;;5067549;28;20281;-48
2023/10/28 10:24:29;;;;;;;1.43;1.20;;;18.40;77.50;19.20;98993.00;;;;5066622;28;20216;-49
2023/10/28 10:26:56;;;;;;;2.60;1.23;;;18.50;77.60;19.10;98977.00;;;;5068888;28;20193;-49
2023/10/28 10:29:23;;;;;;;1.40;1.30;;;18.40;77.50;19.10;98968.00;;;;5063418;28;20668;-49
2023/10/28 10:31:51;;;;;;;2.27;1.50;;;18.40;77.60;19.10;98972.00;;;;5051427;28;20177;-49
2023/10/28 10:34:34;;;;;;;3.43;2.00;;;18.40;77.50;19.10;98977.00;;;;5061323;28;20224;-51
2023/10/28 10:37:00;;;;;;;5.63;2.40;;;18.50;77.70;19.10;98969.00;;;;5049402;28;20572;-49
2023/10/28 10:39:26;;;;;;;4.57;2.77;;;18.50;78.00;19.10;98964.00;;;;5068924;28;20185;-48
2023/10/28 10:41:55;;;;;;;5.63;2.93;;;18.50;78.10;19.10;98965.00;;;;5055695;28;20212;-49
2023/10/28 10:44:36;;;;;;;6.33;3.33;;;18.50;78.10;19.10;98955.00;;;;5056288;28;20198;-48
2023/10/28 10:47:03;;;;;;;9.03;3.90;;;18.50;78.30;19.10;98952.00;;;;5065300;28;20620;-49
2023/10/28 10:49:31;;;;;;;6.73;3.70;;;18.40;78.30;19.10;98950.00;;;;5067459;28;20185;-49
2023/10/28 10:51:59;;;;;;;6.33;3.40;;;18.40;78.30;19.10;98952.00;;;;5068416;28;20190;-48
2023/10/28 10:54:31;;;;;;;5.93;3.30;;;18.40;78.20;19.10;98937.00;;;;5066552;28;20205;-50